createdAt,value
2018-02-19T00:00:09.739Z,-4.95
2018-02-19T00:01:10.201Z,-4.96
2018-02-19T00:02:10.673Z,-4.96
2018-02-19T00:03:11.143Z,-4.96
2018-02-19T00:04:11.607Z,-4.97
2018-02-19T00:05:12.075Z,-4.97
2018-02-19T00:06:12.541Z,-4.98
2018-02-19T00:07:13.008Z,-4.98
2018-02-19T00:08:13.469Z,-4.98
2018-02-19T00:09:13.942Z,-4.98
2018-02-19T00:10:14.408Z,-4.99
2018-02-19T00:11:14.874Z,-4.99
2018-02-19T00:12:15.337Z,-5.02
2018-02-19T00:13:15.811Z,-5.03
2018-02-19T00:14:16.277Z,-5.02
2018-02-19T00:15:16.742Z,-5.03
2018-02-19T00:16:17.210Z,-5.04
2018-02-19T00:17:17.730Z,-5.05
2018-02-19T00:18:18.144Z,-5.06
2018-02-19T00:19:18.606Z,-5.07
2018-02-19T00:20:19.077Z,-5.08
2018-02-19T00:21:19.544Z,-5.08
2018-02-19T00:22:20.012Z,-5.08
2018-02-19T00:23:20.473Z,-5.10
2018-02-19T00:24:20.944Z,-5.10
2018-02-19T00:25:21.412Z,-5.12
2018-02-19T00:26:21.878Z,-5.12
2018-02-19T00:27:22.396Z,-5.12
2018-02-19T00:28:22.812Z,-5.14
2018-02-19T00:29:23.279Z,-5.14
2018-02-19T00:30:23.740Z,-5.15
2018-02-19T00:31:24.214Z,-5.14
2018-02-19T00:32:24.682Z,-5.16
2018-02-19T00:33:25.145Z,-5.16
2018-02-19T00:34:25.607Z,-5.18
2018-02-19T00:35:26.078Z,-5.18
2018-02-19T00:36:26.546Z,-5.18
2018-02-19T00:37:27.063Z,-5.19
2018-02-19T00:38:27.480Z,-5.18
2018-02-19T00:39:27.946Z,-5.19
2018-02-19T00:40:28.412Z,-5.19
2018-02-19T00:41:28.874Z,-5.20
2018-02-19T00:42:29.397Z,-5.20
2018-02-19T00:43:29.812Z,-5.22
2018-02-19T00:44:30.280Z,-5.22
2018-02-19T00:45:30.745Z,-5.22
2018-02-19T00:46:31.212Z,-5.22
2018-02-19T00:47:31.680Z,-5.24
2018-02-19T00:48:32.145Z,-5.24
2018-02-19T00:49:32.613Z,-5.24
2018-02-19T00:50:33.080Z,-5.26
2018-02-19T00:51:33.547Z,-5.26
2018-02-19T00:52:34.007Z,-5.24
2018-02-19T00:54:34.945Z,-5.26
2018-02-19T00:55:35.410Z,-5.27
2018-02-19T00:56:35.879Z,-5.26
2018-02-19T00:57:36.397Z,-5.28
2018-02-19T00:58:36.812Z,-5.28
2018-02-19T00:59:37.275Z,-5.29
2018-02-19T01:00:37.744Z,-5.30
2018-02-19T01:02:38.678Z,-5.32
2018-02-19T01:03:39.139Z,-5.32
2018-02-19T01:04:39.611Z,-5.32
2018-02-19T01:05:40.077Z,-5.35
2018-02-19T01:07:41.061Z,-5.35
2018-02-19T01:08:41.475Z,-5.36
2018-02-19T01:09:41.943Z,-5.35
2018-02-19T01:10:42.405Z,-5.38
2018-02-19T01:11:42.876Z,-5.38
2018-02-19T01:12:43.394Z,-5.39
2018-02-19T01:13:43.809Z,-5.40
2018-02-19T01:14:44.268Z,-5.42
2018-02-19T01:15:44.745Z,-5.42
2018-02-19T01:16:45.206Z,-5.42
2018-02-19T01:18:46.141Z,-5.44
2018-02-19T01:19:46.606Z,-5.46
2018-02-19T01:20:47.073Z,-5.46
2018-02-19T01:21:47.539Z,-5.46
2018-02-19T01:22:48.007Z,-5.48
2018-02-19T01:23:48.473Z,-5.48
2018-02-19T01:24:48.937Z,-5.50
2018-02-19T01:25:49.400Z,-5.48
2018-02-19T01:26:49.874Z,-5.48
2018-02-19T01:27:50.336Z,-5.50
2018-02-19T01:28:50.802Z,-5.50
2018-02-19T01:29:51.271Z,-5.52
2018-02-19T01:30:51.736Z,-5.51
2018-02-19T01:31:52.201Z,-5.50
2018-02-19T01:32:52.713Z,-5.52
2018-02-19T01:33:53.135Z,-5.52
2018-02-19T01:34:53.600Z,-5.52
2018-02-19T01:35:54.065Z,-5.52
2018-02-19T01:36:54.530Z,-5.52
2018-02-19T01:38:06.680Z,-5.52
2018-02-19T01:38:55.464Z,-5.52
2018-02-19T01:39:55.931Z,-5.53
2018-02-19T01:40:56.398Z,-5.52
2018-02-19T01:41:56.863Z,-5.52
2018-02-19T01:43:57.788Z,-5.54
2018-02-19T01:44:58.262Z,-5.54
2018-02-19T01:47:59.658Z,-5.54
2018-02-19T01:49:00.126Z,-5.54
2018-02-19T01:50:00.590Z,-5.56
2018-02-19T01:52:01.525Z,-5.56
2018-02-19T01:53:01.990Z,-5.56
2018-02-19T01:54:02.456Z,-5.56
2018-02-19T01:55:02.917Z,-5.56
2018-02-19T01:56:03.389Z,-5.56
2018-02-19T01:57:03.855Z,-5.58
2018-02-19T01:58:04.369Z,-5.58
2018-02-19T01:59:04.786Z,-5.58
2018-02-19T02:00:05.252Z,-5.58
2018-02-19T02:01:05.718Z,-5.59
2018-02-19T02:02:06.178Z,-5.59
2018-02-19T02:03:06.703Z,-5.62
2018-02-19T02:04:07.114Z,-5.61
2018-02-19T02:05:07.582Z,-5.62
2018-02-19T02:06:08.044Z,-5.62
2018-02-19T02:07:08.515Z,-5.62
2018-02-19T02:08:08.980Z,-5.66
2018-02-19T02:09:09.447Z,-5.64
2018-02-19T02:10:09.912Z,-5.64
2018-02-19T02:11:10.378Z,-5.64
2018-02-19T02:12:10.845Z,-5.66
2018-02-19T02:13:11.356Z,-5.68
2018-02-19T02:14:11.778Z,-5.68
2018-02-19T02:16:12.706Z,-5.70
2018-02-19T02:17:13.171Z,-5.70
2018-02-19T02:19:14.109Z,-5.72
2018-02-19T02:20:14.572Z,-5.72
2018-02-19T02:21:15.091Z,-5.74
2018-02-19T02:22:15.505Z,-5.75
2018-02-19T02:23:15.972Z,-5.76
2018-02-19T02:24:16.430Z,-5.76
2018-02-19T02:25:16.904Z,-5.75
2018-02-19T02:26:17.367Z,-5.77
2018-02-19T02:27:17.836Z,-5.76
2018-02-19T02:28:18.344Z,-5.78
2018-02-19T02:29:18.766Z,-5.78
2018-02-19T02:30:19.232Z,-5.78
2018-02-19T02:31:19.697Z,-5.78
2018-02-19T02:32:20.163Z,-5.80
2018-02-19T02:33:20.629Z,-5.78
2018-02-19T02:34:21.099Z,-5.81
2018-02-19T02:35:21.555Z,-5.80
2018-02-19T02:36:22.030Z,-5.82
2018-02-19T02:37:22.494Z,-5.80
2018-02-19T02:38:23.010Z,-5.81
2018-02-19T02:39:23.426Z,-5.82
2018-02-19T02:40:23.890Z,-5.83
2018-02-19T02:41:24.357Z,-5.84
2018-02-19T02:42:24.822Z,-5.84
2018-02-19T02:43:25.340Z,-5.85
2018-02-19T02:44:25.754Z,-5.86
2018-02-19T02:45:26.220Z,-5.86
2018-02-19T02:46:26.683Z,-5.86
2018-02-19T02:47:27.152Z,-5.86
2018-02-19T02:48:27.617Z,-5.88
2018-02-19T02:49:28.098Z,-5.86
2018-02-19T02:50:28.549Z,-5.88
2018-02-19T02:51:29.015Z,-5.88
2018-02-19T02:52:29.480Z,-5.90
2018-02-19T02:53:29.946Z,-5.89
2018-02-19T02:54:30.411Z,-5.89
2018-02-19T02:55:30.879Z,-5.90
2018-02-19T02:56:31.343Z,-5.92
2018-02-19T02:57:31.804Z,-5.92
2018-02-19T02:58:32.277Z,-5.90
2018-02-19T03:00:33.213Z,-5.92
2018-02-19T03:01:33.673Z,-5.92
2018-02-19T03:02:34.142Z,-5.92
2018-02-19T03:03:34.605Z,-5.92
2018-02-19T03:04:35.064Z,-5.92
2018-02-19T03:06:36.004Z,-5.94
2018-02-19T03:07:36.468Z,-5.94
2018-02-19T03:08:36.978Z,-5.94
2018-02-19T03:09:37.397Z,-5.94
2018-02-19T03:10:37.864Z,-5.96
2018-02-19T03:11:38.330Z,-5.96
2018-02-19T03:12:38.796Z,-5.96
2018-02-19T03:13:39.261Z,-5.96
2018-02-19T03:14:39.727Z,-5.96
2018-02-19T03:15:40.186Z,-5.96
2018-02-19T03:16:40.657Z,-5.96
2018-02-19T03:17:41.125Z,-5.98
2018-02-19T03:18:41.590Z,-5.99
2018-02-19T03:19:42.049Z,-5.98
2018-02-19T03:20:42.519Z,-5.98
2018-02-19T03:21:42.988Z,-5.98
2018-02-19T03:22:43.452Z,-6.00
2018-02-19T03:23:43.954Z,-5.98
2018-02-19T03:24:44.382Z,-5.99
2018-02-19T03:26:45.310Z,-6.00
2018-02-19T03:27:45.780Z,-6.00
2018-02-19T03:28:46.246Z,-6.00
2018-02-19T03:30:47.172Z,-6.00
2018-02-19T03:31:47.643Z,-6.00
2018-02-19T03:32:48.106Z,-6.02
2018-02-19T03:33:48.624Z,-6.01
2018-02-19T03:34:49.040Z,-6.02
2018-02-19T03:35:49.504Z,-6.02
2018-02-19T03:36:49.969Z,-6.02
2018-02-19T03:37:50.432Z,-6.02
2018-02-19T03:38:50.901Z,-6.02
2018-02-19T03:39:51.372Z,-6.03
2018-02-19T03:40:51.833Z,-6.02
2018-02-19T03:41:52.304Z,-6.04
2018-02-19T03:42:52.763Z,-6.04
2018-02-19T03:43:53.230Z,-6.04
2018-02-19T03:44:53.693Z,-6.04
2018-02-19T03:46:54.626Z,-6.04
2018-02-19T03:47:55.090Z,-6.04
2018-02-19T03:48:55.601Z,-6.05
2018-02-19T03:49:56.022Z,-6.06
2018-02-19T03:51:56.952Z,-6.06
2018-02-19T03:52:57.416Z,-6.08
2018-02-19T03:53:57.882Z,-6.07
2018-02-19T03:54:58.350Z,-6.08
2018-02-19T03:55:58.812Z,-6.08
2018-02-19T03:56:59.279Z,-6.08
2018-02-19T03:57:59.745Z,-6.10
2018-02-19T03:59:00.212Z,-6.10
2018-02-19T04:00:00.673Z,-6.10
2018-02-19T04:01:01.142Z,-6.11
2018-02-19T04:03:02.073Z,-6.12
2018-02-19T04:04:02.541Z,-6.10
2018-02-19T04:05:03.004Z,-6.12
2018-02-19T04:06:03.470Z,-6.14
2018-02-19T04:07:03.934Z,-6.14
2018-02-19T04:08:04.396Z,-6.12
2018-02-19T04:09:04.866Z,-6.14
2018-02-19T04:10:05.332Z,-6.14
2018-02-19T04:11:05.797Z,-6.15
2018-02-19T04:12:06.262Z,-6.16
2018-02-19T04:13:06.727Z,-6.17
2018-02-19T04:14:07.243Z,-6.16
2018-02-19T04:15:07.658Z,-6.20
2018-02-19T04:16:08.123Z,-6.20
2018-02-19T04:17:08.591Z,-6.20
2018-02-19T04:18:09.054Z,-6.20
2018-02-19T04:19:09.515Z,-6.21
2018-02-19T04:20:09.985Z,-6.20
2018-02-19T04:21:10.450Z,-6.22
2018-02-19T04:22:10.915Z,-6.22
2018-02-19T04:23:11.382Z,-6.24
2018-02-19T04:24:11.896Z,-6.24
2018-02-19T04:25:12.312Z,-6.24
2018-02-19T04:26:12.773Z,-6.26
2018-02-19T04:27:13.238Z,-6.26
2018-02-19T04:28:13.704Z,-6.26
2018-02-19T04:29:14.166Z,-6.26
2018-02-19T04:30:14.633Z,-6.28
2018-02-19T04:31:15.100Z,-6.27
2018-02-19T04:32:15.565Z,-6.28
2018-02-19T04:33:16.029Z,-6.26
2018-02-19T04:34:16.549Z,-6.28
2018-02-19T04:35:16.961Z,-6.28
2018-02-19T04:36:17.430Z,-6.29
2018-02-19T04:37:17.896Z,-6.29
2018-02-19T04:38:18.361Z,-6.30
2018-02-19T04:40:30.827Z,-6.28
2018-02-19T04:42:20.225Z,-6.28
2018-02-19T04:44:21.161Z,-6.30
2018-02-19T04:45:33.862Z,-6.30
2018-02-19T04:46:22.085Z,-6.31
2018-02-19T04:47:22.549Z,-6.30
2018-02-19T04:48:23.012Z,-6.30
2018-02-19T04:49:23.479Z,-6.32
2018-02-19T04:50:23.946Z,-6.30
2018-02-19T04:51:24.411Z,-6.32
2018-02-19T04:52:24.874Z,-6.31
2018-02-19T04:53:25.340Z,-6.32
2018-02-19T04:54:25.801Z,-6.33
2018-02-19T04:55:26.271Z,-6.32
2018-02-19T04:56:26.738Z,-6.32
2018-02-19T04:58:27.666Z,-6.32
2018-02-19T04:59:28.128Z,-6.33
2018-02-19T05:00:28.598Z,-6.34
2018-02-19T05:01:29.063Z,-6.34
2018-02-19T05:02:29.531Z,-6.34
2018-02-19T05:04:30.460Z,-6.34
2018-02-19T05:05:30.974Z,-6.36
2018-02-19T05:06:31.384Z,-6.36
2018-02-19T05:09:32.786Z,-6.34
2018-02-19T05:10:33.296Z,-6.36
2018-02-19T05:11:33.721Z,-6.37
2018-02-19T05:12:34.181Z,-6.36
2018-02-19T05:13:34.648Z,-6.37
2018-02-19T05:14:35.110Z,-6.37
2018-02-19T05:15:35.626Z,-6.36
2018-02-19T05:16:36.041Z,-6.38
2018-02-19T05:17:36.501Z,-6.36
2018-02-19T05:18:36.971Z,-6.38
2018-02-19T05:19:37.436Z,-6.40
2018-02-19T05:20:37.903Z,-6.38
2018-02-19T05:21:38.364Z,-6.38
2018-02-19T05:22:38.831Z,-6.38
2018-02-19T05:23:39.291Z,-6.38
2018-02-19T05:24:39.761Z,-6.40
2018-02-19T05:25:40.226Z,-6.39
2018-02-19T05:26:40.690Z,-6.38
2018-02-19T05:27:41.157Z,-6.40
2018-02-19T05:28:41.620Z,-6.40
2018-02-19T05:29:42.081Z,-6.40
2018-02-19T05:30:53.884Z,-6.40
2018-02-19T05:31:43.017Z,-6.39
2018-02-19T05:33:43.940Z,-6.41
2018-02-19T05:34:44.413Z,-6.42
2018-02-19T05:35:44.930Z,-6.42
2018-02-19T05:36:45.343Z,-6.42
2018-02-19T05:37:45.806Z,-6.44
2018-02-19T05:38:46.274Z,-6.43
2018-02-19T05:40:47.258Z,-6.43
2018-02-19T05:42:48.129Z,-6.43
2018-02-19T05:43:48.598Z,-6.40
2018-02-19T05:44:49.062Z,-6.44
2018-02-19T05:45:49.575Z,-6.44
2018-02-19T05:46:49.992Z,-6.44
2018-02-19T05:47:50.457Z,-6.43
2018-02-19T05:48:50.924Z,-6.43
2018-02-19T05:49:51.384Z,-6.44
2018-02-19T05:50:51.854Z,-6.44
2018-02-19T05:51:52.319Z,-6.42
2018-02-19T05:52:52.785Z,-6.44
2018-02-19T05:54:53.713Z,-6.44
2018-02-19T05:55:54.228Z,-6.46
2018-02-19T05:56:54.645Z,-6.46
2018-02-19T05:57:55.112Z,-6.46
2018-02-19T05:58:55.574Z,-6.44
2018-02-19T05:59:56.035Z,-6.46
2018-02-19T06:00:56.557Z,-6.48
2018-02-19T06:01:56.973Z,-6.46
2018-02-19T06:02:57.435Z,-6.47
2018-02-19T06:03:57.895Z,-6.48
2018-02-19T06:04:58.367Z,-6.47
2018-02-19T06:05:58.833Z,-6.48
2018-02-19T06:06:59.300Z,-6.48
2018-02-19T06:07:59.761Z,-6.48
2018-02-19T06:09:00.227Z,-6.48
2018-02-19T06:10:00.691Z,-6.48
2018-02-19T06:11:01.203Z,-6.48
2018-02-19T06:12:01.622Z,-6.50
2018-02-19T06:13:02.086Z,-6.49
2018-02-19T06:14:02.551Z,-6.50
2018-02-19T06:15:03.016Z,-6.48
2018-02-19T06:16:03.481Z,-6.49
2018-02-19T06:17:03.947Z,-6.50
2018-02-19T06:18:04.411Z,-6.51
2018-02-19T06:19:04.876Z,-6.51
2018-02-19T06:20:05.379Z,-6.51
2018-02-19T06:21:05.807Z,-6.51
2018-02-19T06:22:06.268Z,-6.50
2018-02-19T06:23:06.738Z,-6.51
2018-02-19T06:24:07.202Z,-6.50
2018-02-19T06:25:07.673Z,-6.48
2018-02-19T06:26:08.179Z,-6.48
2018-02-19T06:27:08.600Z,-6.46
2018-02-19T06:28:09.063Z,-6.44
2018-02-19T06:29:09.530Z,-6.42
2018-02-19T06:30:09.991Z,-6.39
2018-02-19T06:31:10.509Z,-6.38
2018-02-19T06:32:10.923Z,-6.34
2018-02-19T06:33:11.389Z,-6.31
2018-02-19T06:34:11.848Z,-6.28
2018-02-19T06:35:12.319Z,-6.22
2018-02-19T06:36:12.784Z,-6.20
2018-02-19T06:37:13.250Z,-6.15
2018-02-19T06:38:13.715Z,-6.10
2018-02-19T06:39:14.180Z,-6.06
2018-02-19T06:40:14.647Z,-6.00
2018-02-19T06:41:15.107Z,-5.92
2018-02-19T06:42:15.576Z,-5.88
2018-02-19T06:43:16.043Z,-5.82
2018-02-19T06:44:16.508Z,-5.74
2018-02-19T06:45:16.969Z,-5.69
2018-02-19T06:46:17.439Z,-5.64
2018-02-19T06:47:17.904Z,-5.56
2018-02-19T06:48:18.370Z,-5.50
2018-02-19T06:49:18.837Z,-5.44
2018-02-19T06:50:19.301Z,-5.36
2018-02-19T06:51:19.767Z,-5.30
2018-02-19T06:52:20.228Z,-5.23
2018-02-19T06:54:21.213Z,-5.08
2018-02-19T06:55:21.631Z,-5.00
2018-02-19T06:57:22.564Z,-4.85
2018-02-19T06:59:23.495Z,-4.68
2018-02-19T07:00:23.960Z,-4.61
2018-02-19T07:01:24.477Z,-4.52
2018-02-19T07:02:24.899Z,-4.44
2018-02-19T07:03:25.354Z,-4.36
2018-02-19T07:04:25.826Z,-4.28
2018-02-19T07:05:26.296Z,-4.18
2018-02-19T07:06:26.807Z,-4.10
2018-02-19T07:07:27.225Z,-4.03
2018-02-19T07:08:27.694Z,-3.94
2018-02-19T07:09:28.158Z,-3.86
2018-02-19T07:10:28.629Z,-3.78
2018-02-19T07:11:29.140Z,-3.69
2018-02-19T07:12:29.555Z,-3.61
2018-02-19T07:13:30.025Z,-3.52
2018-02-19T07:14:30.503Z,-3.42
2018-02-19T07:15:30.958Z,-3.34
2018-02-19T07:16:43.061Z,-3.24
2018-02-19T07:17:31.893Z,-3.16
2018-02-19T07:18:32.358Z,-3.07
2018-02-19T07:19:32.822Z,-2.99
2018-02-19T07:20:33.294Z,-2.89
2018-02-19T07:21:33.815Z,-2.82
2018-02-19T07:22:34.226Z,-2.70
2018-02-19T07:23:34.695Z,-2.62
2018-02-19T07:24:35.165Z,-2.52
2018-02-19T07:25:35.629Z,-2.45
2018-02-19T07:26:48.030Z,-2.33
2018-02-19T07:27:36.567Z,-2.22
2018-02-19T07:28:37.030Z,-2.15
2018-02-19T07:29:37.502Z,-2.04
2018-02-19T07:30:37.967Z,-1.96
2018-02-19T07:31:38.487Z,-1.88
2018-02-19T07:32:38.898Z,-1.79
2018-02-19T07:33:39.372Z,-1.70
2018-02-19T07:34:39.840Z,-1.60
2018-02-19T07:35:40.310Z,-1.52
2018-02-19T07:36:40.778Z,-1.38
2018-02-19T07:37:41.245Z,-1.30
2018-02-19T07:38:41.714Z,-1.22
2018-02-19T07:39:42.175Z,-1.10
2018-02-19T07:40:42.651Z,-1.04
2018-02-19T07:41:55.056Z,-0.93
2018-02-19T07:42:43.584Z,-0.84
2018-02-19T07:44:44.522Z,-0.66
2018-02-19T07:45:44.990Z,-0.55
2018-02-19T07:47:45.929Z,-0.36
2018-02-19T07:48:46.394Z,-0.26
2018-02-19T07:50:47.335Z,-0.06
2018-02-19T07:51:47.855Z,0.02
2018-02-19T07:52:48.274Z,0.12
2018-02-19T07:53:48.746Z,0.21
2018-02-19T07:54:49.207Z,0.30
2018-02-19T07:55:49.684Z,0.40
2018-02-19T07:56:50.203Z,0.50
2018-02-19T07:57:50.622Z,0.58
2018-02-19T07:58:51.090Z,0.68
2018-02-19T07:59:51.563Z,0.76
2018-02-19T08:00:52.031Z,0.87
2018-02-19T08:01:52.497Z,0.96
2018-02-19T08:02:52.968Z,1.06
2018-02-19T08:03:53.443Z,1.16
2018-02-19T08:04:53.909Z,1.24
2018-02-19T08:05:54.378Z,1.36
2018-02-19T08:06:54.848Z,1.46
2018-02-19T08:07:55.314Z,1.55
2018-02-19T08:08:55.789Z,1.64
2018-02-19T08:09:56.260Z,1.73
2018-02-19T08:10:56.732Z,1.83
2018-02-19T08:11:57.251Z,1.92
2018-02-19T08:12:57.672Z,2.02
2018-02-19T08:13:58.142Z,2.12
2018-02-19T08:14:58.608Z,2.21
2018-02-19T08:15:59.086Z,2.31
2018-02-19T08:16:59.606Z,2.42
2018-02-19T08:18:00.027Z,2.50
2018-02-19T08:20:00.966Z,2.69
2018-02-19T08:21:01.441Z,2.77
2018-02-19T08:22:01.961Z,2.88
2018-02-19T08:23:02.383Z,2.96
2018-02-19T08:24:02.853Z,3.04
2018-02-19T08:25:03.322Z,3.14
2018-02-19T08:26:03.791Z,3.20
2018-02-19T08:27:04.318Z,3.31
2018-02-19T08:28:04.739Z,3.38
2018-02-19T08:29:05.213Z,3.46
2018-02-19T08:30:05.681Z,3.55
2018-02-19T08:31:06.154Z,3.62
2018-02-19T08:32:06.625Z,3.68
2018-02-19T08:33:07.095Z,3.78
2018-02-19T08:34:07.570Z,3.88
2018-02-19T08:35:08.041Z,3.96
2018-02-19T08:37:08.980Z,4.14
2018-02-19T08:38:09.459Z,4.22
2018-02-19T08:39:09.928Z,4.30
2018-02-19T08:40:10.402Z,4.36
2018-02-19T08:41:10.876Z,4.44
2018-02-19T08:42:11.399Z,4.52
2018-02-19T08:43:11.821Z,4.60
2018-02-19T08:44:12.294Z,4.66
2018-02-19T08:45:12.776Z,4.72
2018-02-19T08:46:13.234Z,4.80
2018-02-19T08:47:13.713Z,4.86
2018-02-19T08:48:14.185Z,4.94
2018-02-19T08:49:14.654Z,5.00
2018-02-19T08:50:15.126Z,5.08
2018-02-19T08:51:15.602Z,5.14
2018-02-19T08:52:16.078Z,5.20
2018-02-19T08:53:16.563Z,5.28
2018-02-19T08:54:17.024Z,5.36
2018-02-19T08:55:17.497Z,5.42
2018-02-19T08:56:17.968Z,5.49
2018-02-19T08:57:18.445Z,5.56
2018-02-19T08:58:18.915Z,5.64
2018-02-19T08:59:19.385Z,5.71
2018-02-19T09:00:19.864Z,5.78
2018-02-19T09:03:21.336Z,6.01
2018-02-19T09:04:21.758Z,6.08
2018-02-19T09:05:22.234Z,6.16
2018-02-19T09:06:22.706Z,6.24
2018-02-19T09:07:23.175Z,6.32
2018-02-19T09:08:23.656Z,6.40
2018-02-19T09:09:24.130Z,6.46
2018-02-19T09:10:24.604Z,6.54
2018-02-19T09:12:25.551Z,6.69
2018-02-19T09:13:26.076Z,6.78
2018-02-19T09:15:26.974Z,6.94
2018-02-19T09:16:27.449Z,7.02
2018-02-19T09:17:27.972Z,7.10
2018-02-19T09:18:28.444Z,7.18
2018-02-19T09:19:28.871Z,7.25
2018-02-19T09:20:29.347Z,7.34
2018-02-19T09:21:29.820Z,7.42
2018-02-19T09:22:30.296Z,7.50
2018-02-19T09:23:30.770Z,7.58
2018-02-19T09:24:31.259Z,7.67
2018-02-19T09:25:31.714Z,7.76
2018-02-19T09:26:32.196Z,7.82
2018-02-19T09:27:32.669Z,7.90
2018-02-19T09:29:33.663Z,8.06
2018-02-19T09:30:34.095Z,8.14
2018-02-19T09:31:34.567Z,8.22
2018-02-19T09:32:35.045Z,8.30
2018-02-19T09:33:35.517Z,8.38
2018-02-19T09:34:36.039Z,8.46
2018-02-19T09:35:36.466Z,8.53
2018-02-19T09:36:36.943Z,8.61
2018-02-19T09:37:37.416Z,8.70
2018-02-19T09:38:37.893Z,8.78
2018-02-19T09:39:38.370Z,8.86
2018-02-19T09:40:38.842Z,8.94
2018-02-19T09:41:39.318Z,9.01
2018-02-19T09:42:39.787Z,9.08
2018-02-19T09:44:40.793Z,9.24
2018-02-19T09:45:41.220Z,9.32
2018-02-19T09:46:41.691Z,9.40
2018-02-19T09:47:42.168Z,9.48
2018-02-19T09:48:42.646Z,9.55
2018-02-19T09:49:43.174Z,9.62
2018-02-19T09:51:44.072Z,9.77
2018-02-19T09:52:44.548Z,9.84
2018-02-19T09:53:45.018Z,9.92
2018-02-19T09:54:45.550Z,10.00
2018-02-19T09:55:45.975Z,10.06
2018-02-19T09:56:46.450Z,10.13
2018-02-19T09:57:46.924Z,10.20
2018-02-19T09:58:47.402Z,10.27
2018-02-19T09:59:47.931Z,10.35
2018-02-19T10:00:48.353Z,10.42
2018-02-19T10:01:48.829Z,10.47
2018-02-19T10:02:49.302Z,10.56
2018-02-19T10:03:49.779Z,10.60
2018-02-19T10:05:02.137Z,10.67
2018-02-19T10:05:50.727Z,10.75
2018-02-19T10:06:51.202Z,10.82
2018-02-19T10:07:51.676Z,10.88
2018-02-19T10:08:52.150Z,10.95
2018-02-19T10:09:52.676Z,11.02
2018-02-19T10:10:53.096Z,11.08
2018-02-19T10:11:53.572Z,11.15
2018-02-19T10:12:54.045Z,11.20
2018-02-19T10:13:54.519Z,11.28
2018-02-19T10:14:55.042Z,11.34
2018-02-19T10:15:55.462Z,11.41
2018-02-19T10:16:55.936Z,11.47
2018-02-19T10:17:56.409Z,11.53
2018-02-19T10:18:56.880Z,11.59
2018-02-19T10:19:57.354Z,11.66
2018-02-19T10:20:57.823Z,11.72
2018-02-19T10:21:58.302Z,11.79
2018-02-19T10:22:58.769Z,11.84
2018-02-19T10:23:59.233Z,11.90
2018-02-19T10:25:11.191Z,11.97
2018-02-19T10:26:00.189Z,12.04
2018-02-19T10:28:01.126Z,12.18
2018-02-19T10:29:01.600Z,12.23
2018-02-19T10:30:02.071Z,12.30
2018-02-19T10:31:02.538Z,12.36
2018-02-19T10:32:03.013Z,12.44
2018-02-19T10:33:03.487Z,12.52
2018-02-19T10:34:03.958Z,12.58
2018-02-19T10:35:04.426Z,12.65
2018-02-19T10:36:04.901Z,12.72
2018-02-19T10:37:05.371Z,12.78
2018-02-19T10:38:05.850Z,12.85
2018-02-19T10:39:06.321Z,12.94
2018-02-19T10:40:06.789Z,13.01
2018-02-19T10:41:07.262Z,13.08
2018-02-19T10:42:07.729Z,13.15
2018-02-19T10:43:08.206Z,13.24
2018-02-19T10:44:08.678Z,13.30
2018-02-19T10:45:09.203Z,13.38
2018-02-19T10:46:09.620Z,13.47
2018-02-19T10:47:24.357Z,13.56
2018-02-19T10:48:24.834Z,13.64
2018-02-19T10:49:25.302Z,13.70
2018-02-19T10:50:25.776Z,13.77
2018-02-19T10:51:26.243Z,13.85
2018-02-19T10:52:26.722Z,13.94
2018-02-19T10:53:27.197Z,14.01
2018-02-19T10:54:27.672Z,14.10
2018-02-19T10:55:28.147Z,14.19
2018-02-19T10:56:28.619Z,14.25
2018-02-19T10:57:29.094Z,14.32
2018-02-19T10:58:29.769Z,14.41
2018-02-19T10:59:30.046Z,14.48
2018-02-19T11:00:30.568Z,14.55
2018-02-19T11:01:30.987Z,14.62
2018-02-19T11:02:31.467Z,14.67
2018-02-19T11:03:31.941Z,14.74
2018-02-19T11:04:32.417Z,14.82
2018-02-19T11:05:44.276Z,14.88
2018-02-19T11:06:33.368Z,14.95
2018-02-19T11:08:34.319Z,15.09
2018-02-19T11:09:34.797Z,15.14
2018-02-19T11:11:35.747Z,15.28
2018-02-19T11:12:36.221Z,15.34
2018-02-19T11:13:36.698Z,15.42
2018-02-19T11:14:37.175Z,15.47
2018-02-19T11:15:37.650Z,15.52
2018-02-19T11:16:38.178Z,15.59
2018-02-19T11:17:38.602Z,15.64
2018-02-19T11:18:39.079Z,15.69
2018-02-19T11:20:40.032Z,15.80
2018-02-19T11:21:40.558Z,15.82
2018-02-19T11:22:40.984Z,15.89
2018-02-19T11:23:41.459Z,15.92
2018-02-19T11:24:41.929Z,15.94
2018-02-19T11:26:42.936Z,16.00
2018-02-19T11:27:43.360Z,16.02
2018-02-19T11:28:43.835Z,16.04
2018-02-19T11:29:44.310Z,16.06
2018-02-19T11:30:44.785Z,16.08
2018-02-19T11:31:45.308Z,16.08
2018-02-19T11:32:45.736Z,16.09
2018-02-19T11:33:46.206Z,16.10
2018-02-19T11:34:46.681Z,16.08
2018-02-19T11:35:47.152Z,16.08
2018-02-19T11:36:47.627Z,16.07
2018-02-19T11:38:55.316Z,16.00
2018-02-19T11:39:49.044Z,15.96
2018-02-19T11:40:49.512Z,15.89
2018-02-19T11:41:49.991Z,15.83
2018-02-19T11:42:50.464Z,15.76
2018-02-19T11:43:50.930Z,15.69
2018-02-19T11:44:51.406Z,15.61
2018-02-19T11:45:51.879Z,15.52
2018-02-19T11:46:52.352Z,15.43
2018-02-19T11:47:52.820Z,15.36
2018-02-19T11:48:53.294Z,15.28
2018-02-19T11:49:53.766Z,15.19
2018-02-19T11:50:54.239Z,15.12
2018-02-19T11:51:54.761Z,15.02
2018-02-19T11:52:55.201Z,14.94
2018-02-19T11:53:55.656Z,14.87
2018-02-19T11:54:56.121Z,14.78
2018-02-19T11:55:56.597Z,14.72
2018-02-19T11:56:57.120Z,14.66
2018-02-19T11:57:57.544Z,14.61
2018-02-19T11:58:58.017Z,14.55
2018-02-19T11:59:58.522Z,14.49
2018-02-19T12:00:58.957Z,14.42
2018-02-19T12:01:59.488Z,14.38
2018-02-19T12:02:59.907Z,14.33
2018-02-19T12:04:00.377Z,14.27
2018-02-19T12:05:00.850Z,14.23
2018-02-19T12:06:01.352Z,14.18
2018-02-19T12:07:01.799Z,14.11
2018-02-19T12:08:02.271Z,14.08
2018-02-19T12:09:02.744Z,14.03
2018-02-19T12:10:03.219Z,13.99
2018-02-19T12:11:03.687Z,13.94
2018-02-19T12:12:04.166Z,13.92
2018-02-19T12:13:04.639Z,13.85
2018-02-19T12:14:05.114Z,13.82
2018-02-19T12:15:05.588Z,13.76
2018-02-19T12:16:06.060Z,13.73
2018-02-19T12:17:06.536Z,13.68
2018-02-19T12:18:07.006Z,13.63
2018-02-19T12:19:07.487Z,13.59
2018-02-19T12:20:07.961Z,13.56
2018-02-19T12:21:08.437Z,13.52
2018-02-19T12:22:08.906Z,13.47
2018-02-19T12:23:09.384Z,13.44
2018-02-19T12:24:09.860Z,13.39
2018-02-19T12:25:10.341Z,13.36
2018-02-19T12:26:10.812Z,13.32
2018-02-19T12:27:11.291Z,13.26
2018-02-19T12:28:11.762Z,13.24
2018-02-19T12:29:12.234Z,13.18
2018-02-19T12:30:12.716Z,13.14
2018-02-19T12:31:13.192Z,13.12
2018-02-19T12:32:13.666Z,13.08
2018-02-19T12:33:14.143Z,13.04
2018-02-19T12:35:15.094Z,12.98
2018-02-19T12:36:15.571Z,12.94
2018-02-19T12:37:16.097Z,12.90
2018-02-19T12:39:16.996Z,12.84
2018-02-19T12:40:17.471Z,12.79
2018-02-19T12:41:17.947Z,12.76
2018-02-19T12:42:18.416Z,12.72
2018-02-19T12:43:18.900Z,12.69
2018-02-19T12:44:19.372Z,12.65
2018-02-19T12:46:20.315Z,12.57
2018-02-19T12:47:20.844Z,12.53
2018-02-19T12:48:21.268Z,12.50
2018-02-19T12:49:21.742Z,12.46
2018-02-19T12:50:22.216Z,12.43
2018-02-19T12:51:22.689Z,12.38
2018-02-19T12:52:23.212Z,12.34
2018-02-19T12:53:23.631Z,12.31
2018-02-19T12:55:24.582Z,12.23
2018-02-19T12:56:25.051Z,12.19
2018-02-19T12:57:25.526Z,12.15
2018-02-19T12:58:25.997Z,12.12
2018-02-19T12:59:26.472Z,12.06
2018-02-19T13:01:27.413Z,12.00
2018-02-19T13:02:27.885Z,11.98
2018-02-19T13:03:28.360Z,11.92
2018-02-19T13:04:28.864Z,11.90
2018-02-19T13:05:29.299Z,11.87
2018-02-19T13:06:29.772Z,11.84
2018-02-19T13:07:30.294Z,11.82
2018-02-19T13:08:30.714Z,11.78
2018-02-19T13:09:31.187Z,11.74
2018-02-19T13:10:31.654Z,11.73
2018-02-19T13:11:32.131Z,11.70
2018-02-19T13:12:32.651Z,11.68
2018-02-19T13:13:33.076Z,11.66
2018-02-19T13:14:33.546Z,11.63
2018-02-19T13:15:34.221Z,11.60
2018-02-19T13:18:35.436Z,11.53
2018-02-19T13:19:35.910Z,11.52
2018-02-19T13:20:36.381Z,11.48
2018-02-19T13:21:36.848Z,11.46
2018-02-19T13:23:37.801Z,11.43
2018-02-19T13:24:38.273Z,11.41
2018-02-19T13:25:38.747Z,11.39
2018-02-19T13:26:39.221Z,11.37
2018-02-19T13:27:39.694Z,11.36
2018-02-19T13:28:40.169Z,11.34
2018-02-19T13:29:40.641Z,11.31
2018-02-19T13:30:41.115Z,11.30
2018-02-19T13:31:41.591Z,11.28
2018-02-19T13:32:42.065Z,11.26
2018-02-19T13:33:42.539Z,11.24
2018-02-19T13:34:43.015Z,11.22
2018-02-19T13:35:43.492Z,11.20
2018-02-19T13:36:43.963Z,11.18
2018-02-19T13:37:44.487Z,11.18
2018-02-19T13:38:44.912Z,11.16
2018-02-19T13:39:45.388Z,11.14
2018-02-19T13:40:45.858Z,11.13
2018-02-19T13:41:46.339Z,11.12
2018-02-19T13:42:46.810Z,11.10
2018-02-19T13:43:47.292Z,11.08
2018-02-19T13:44:47.772Z,11.06
2018-02-19T13:45:48.243Z,11.05
2018-02-19T13:46:48.717Z,11.03
2018-02-19T13:47:49.194Z,11.01
2018-02-19T13:48:49.670Z,10.99
2018-02-19T13:49:50.139Z,10.98
2018-02-19T13:50:50.621Z,10.97
2018-02-19T13:51:51.096Z,10.95
2018-02-19T13:52:51.623Z,10.93
2018-02-19T13:53:52.042Z,10.92
2018-02-19T13:54:52.525Z,10.90
2018-02-19T13:55:53.000Z,10.87
2018-02-19T13:56:53.473Z,10.85
2018-02-19T13:57:53.943Z,10.82
2018-02-19T13:59:54.899Z,10.80
2018-02-19T14:00:55.373Z,10.76